sensor_id;sensor_type;location;lat;lon;timestamp;temperature;humidity
2497;DHT22;1259;48.306;14.374;2022-12-07T00:01:29;2.00;99.90
2497;DHT22;1259;48.306;14.374;2022-12-07T00:03:58;2.00;99.90
2497;DHT22;1259;48.306;14.374;2022-12-07T00:06:30;2.00;99.90
2497;DHT22;1259;48.306;14.374;2022-12-07T00:08:58;2.10;99.90
2497;DHT22;1259;48.306;14.374;2022-12-07T00:11:26;2.00;99.90
2497;DHT22;1259;48.306;14.374;2022-12-07T00:13:54;2.00;99.90
2497;DHT22;1259;48.306;14.374;2022-12-07T00:16:22;2.00;99.90
2497;DHT22;1259;48.306;14.374;2022-12-07T00:18:49;2.00;99.90
2497;DHT22;1259;48.306;14.374;2022-12-07T00:21:18;2.00;99.90
2497;DHT22;1259;48.306;14.374;2022-12-07T00:23:47;2.00;99.90
2497;DHT22;1259;48.306;14.374;2022-12-07T00:26:18;2.00;99.90
2497;DHT22;1259;48.306;14.374;2022-12-07T00:28:46;2.10;99.90
2497;DHT22;1259;48.306;14.374;2022-12-07T00:31:14;2.10;99.90
2497;DHT22;1259;48.306;14.374;2022-12-07T00:33:41;2.10;99.90
2497;DHT22;1259;48.306;14.374;2022-12-07T00:36:11;2.10;99.90
2497;DHT22;1259;48.306;14.374;2022-12-07T00:38:38;2.10;99.90
2497;DHT22;1259;48.306;14.374;2022-12-07T00:41:08;2.10;99.90
2497;DHT22;1259;48.306;14.374;2022-12-07T00:43:37;2.10;99.90
2497;DHT22;1259;48.306;14.374;2022-12-07T00:46:05;2.00;99.90
2497;DHT22;1259;48.306;14.374;2022-12-07T00:48:32;2.00;99.90
2497;DHT22;1259;48.306;14.374;2022-12-07T00:50:59;2.00;99.90
2497;DHT22;1259;48.306;14.374;2022-12-07T00:53:26;2.10;99.90
2497;DHT22;1259;48.306;14.374;2022-12-07T00:55:53;2.00;99.90
2497;DHT22;1259;48.306;14.374;2022-12-07T00:58:21;2.00;99.90
2497;DHT22;1259;48.306;14.374;2022-12-07T01:00:49;2.10;99.90
2497;DHT22;1259;48.306;14.374;2022-12-07T01:03:16;2.10;99.90
2497;DHT22;1259;48.306;14.374;2022-12-07T01:05:49;2.10;99.90
2497;DHT22;1259;48.306;14.374;2022-12-07T01:08:16;2.10;99.90
2497;DHT22;1259;48.306;14.374;2022-12-07T01:10:43;2.10;99.90
2497;DHT22;1259;48.306;14.374;2022-12-07T01:13:10;2.10;99.90
2497;DHT22;1259;48.306;14.374;2022-12-07T01:15:39;2.10;99.90
2497;DHT22;1259;48.306;14.374;2022-12-07T01:18:07;2.10;99.90
2497;DHT22;1259;48.306;14.374;2022-12-07T01:20:34;2.10;99.90
2497;DHT22;1259;48.306;14.374;2022-12-07T01:23:01;2.10;99.90
2497;DHT22;1259;48.306;14.374;2022-12-07T01:25:28;2.10;99.90
2497;DHT22;1259;48.306;14.374;2022-12-07T01:27:55;2.00;99.90
2497;DHT22;1259;48.306;14.374;2022-12-07T01:30:23;2.00;99.90
2497;DHT22;1259;48.306;14.374;2022-12-07T01:32:50;2.00;99.90
2497;DHT22;1259;48.306;14.374;2022-12-07T01:35:18;2.00;99.90
2497;DHT22;1259;48.306;14.374;2022-12-07T01:37:45;2.10;99.90
2497;DHT22;1259;48.306;14.374;2022-12-07T01:40:12;2.10;99.90
2497;DHT22;1259;48.306;14.374;2022-12-07T01:42:39;2.10;99.90
2497;DHT22;1259;48.306;14.374;2022-12-07T01:45:39;2.10;99.90
2497;DHT22;1259;48.306;14.374;2022-12-07T01:48:07;2.10;99.90
2497;DHT22;1259;48.306;14.374;2022-12-07T01:50:38;2.10;99.90
2497;DHT22;1259;48.306;14.374;2022-12-07T01:53:09;2.20;99.90
2497;DHT22;1259;48.306;14.374;2022-12-07T01:55:40;2.10;99.90
2497;DHT22;1259;48.306;14.374;2022-12-07T01:58:07;2.10;99.90
2497;DHT22;1259;48.306;14.374;2022-12-07T02:00:34;2.10;99.90
2497;DHT22;1259;48.306;14.374;2022-12-07T02:03:04;2.00;99.90
2497;DHT22;1259;48.306;14.374;2022-12-07T02:05:35;2.00;99.90
2497;DHT22;1259;48.306;14.374;2022-12-07T02:08:04;2.00;99.90
2497;DHT22;1259;48.306;14.374;2022-12-07T02:10:31;2.00;99.90
2497;DHT22;1259;48.306;14.374;2022-12-07T02:13:01;2.10;99.90
2497;DHT22;1259;48.306;14.374;2022-12-07T02:15:37;2.10;99.90
2497;DHT22;1259;48.306;14.374;2022-12-07T02:18:09;2.10;99.90
2497;DHT22;1259;48.306;14.374;2022-12-07T02:20:47;2.10;99.90
2497;DHT22;1259;48.306;14.374;2022-12-07T02:26:47;2.00;99.90
2497;DHT22;1259;48.306;14.374;2022-12-07T02:29:22;2.00;99.90
2497;DHT22;1259;48.306;14.374;2022-12-07T02:31:56;2.00;99.90
2497;DHT22;1259;48.306;14.374;2022-12-07T02:34:33;2.00;99.90
2497;DHT22;1259;48.306;14.374;2022-12-07T02:37:06;2.00;99.90
2497;DHT22;1259;48.306;14.374;2022-12-07T02:39:39;2.10;99.90
2497;DHT22;1259;48.306;14.374;2022-12-07T02:42:17;2.00;99.90
2497;DHT22;1259;48.306;14.374;2022-12-07T02:44:47;2.00;99.90
2497;DHT22;1259;48.306;14.374;2022-12-07T02:47:16;2.00;99.90
2497;DHT22;1259;48.306;14.374;2022-12-07T02:49:44;2.00;99.90
2497;DHT22;1259;48.306;14.374;2022-12-07T02:52:11;2.00;99.90
2497;DHT22;1259;48.306;14.374;2022-12-07T02:54:37;2.00;99.90
2497;DHT22;1259;48.306;14.374;2022-12-07T02:57:15;2.00;99.90
2497;DHT22;1259;48.306;14.374;2022-12-07T02:59:58;2.00;99.90
2497;DHT22;1259;48.306;14.374;2022-12-07T03:02:32;2.00;99.90
2497;DHT22;1259;48.306;14.374;2022-12-07T03:05:13;2.00;99.90
2497;DHT22;1259;48.306;14.374;2022-12-07T03:07:49;2.00;99.90
2497;DHT22;1259;48.306;14.374;2022-12-07T03:10:24;1.90;99.90
2497;DHT22;1259;48.306;14.374;2022-12-07T03:12:57;1.90;99.90
2497;DHT22;1259;48.306;14.374;2022-12-07T03:15:32;1.90;99.90
2497;DHT22;1259;48.306;14.374;2022-12-07T03:18:01;2.00;99.90
2497;DHT22;1259;48.306;14.374;2022-12-07T03:20:29;2.00;99.90
2497;DHT22;1259;48.306;14.374;2022-12-07T03:22:56;2.00;99.90
2497;DHT22;1259;48.306;14.374;2022-12-07T03:25:24;2.00;99.90
2497;DHT22;1259;48.306;14.374;2022-12-07T03:27:54;2.00;99.90
2497;DHT22;1259;48.306;14.374;2022-12-07T03:30:23;2.00;99.90
2497;DHT22;1259;48.306;14.374;2022-12-07T03:32:57;2.00;99.90
2497;DHT22;1259;48.306;14.374;2022-12-07T03:35:28;2.00;99.90
2497;DHT22;1259;48.306;14.374;2022-12-07T03:37:58;2.00;99.90
2497;DHT22;1259;48.306;14.374;2022-12-07T03:40:30;2.00;99.90
2497;DHT22;1259;48.306;14.374;2022-12-07T03:42:59;2.00;99.90
2497;DHT22;1259;48.306;14.374;2022-12-07T03:45:35;2.00;99.90
2497;DHT22;1259;48.306;14.374;2022-12-07T03:48:08;2.00;99.90
2497;DHT22;1259;48.306;14.374;2022-12-07T03:50:42;2.00;99.90
2497;DHT22;1259;48.306;14.374;2022-12-07T03:53:16;1.90;99.90
2497;DHT22;1259;48.306;14.374;2022-12-07T03:55:46;1.80;99.90
2497;DHT22;1259;48.306;14.374;2022-12-07T03:58:16;1.90;99.90
2497;DHT22;1259;48.306;14.374;2022-12-07T04:00:44;1.90;99.90
2497;DHT22;1259;48.306;14.374;2022-12-07T04:03:12;1.90;99.90
2497;DHT22;1259;48.306;14.374;2022-12-07T04:05:39;1.90;99.90
2497;DHT22;1259;48.306;14.374;2022-12-07T04:08:07;1.80;99.90
2497;DHT22;1259;48.306;14.374;2022-12-07T04:10:34;1.90;99.90
2497;DHT22;1259;48.306;14.374;2022-12-07T04:13:01;1.90;99.90
2497;DHT22;1259;48.306;14.374;2022-12-07T04:15:27;1.90;99.90
2497;DHT22;1259;48.306;14.374;2022-12-07T04:17:54;1.90;99.90
2497;DHT22;1259;48.306;14.374;2022-12-07T04:20:22;1.90;99.90
2497;DHT22;1259;48.306;14.374;2022-12-07T04:22:49;1.90;99.90
2497;DHT22;1259;48.306;14.374;2022-12-07T04:25:16;1.90;99.90
2497;DHT22;1259;48.306;14.374;2022-12-07T04:27:43;1.90;99.90
2497;DHT22;1259;48.306;14.374;2022-12-07T04:30:10;1.90;99.90
2497;DHT22;1259;48.306;14.374;2022-12-07T04:32:37;2.00;99.90
2497;DHT22;1259;48.306;14.374;2022-12-07T04:35:04;2.00;99.90
2497;DHT22;1259;48.306;14.374;2022-12-07T04:37:33;1.90;99.90
2497;DHT22;1259;48.306;14.374;2022-12-07T04:40:00;1.90;99.90
2497;DHT22;1259;48.306;14.374;2022-12-07T04:42:26;2.00;99.90
2497;DHT22;1259;48.306;14.374;2022-12-07T04:44:53;1.90;99.90
2497;DHT22;1259;48.306;14.374;2022-12-07T04:47:20;1.80;99.90
2497;DHT22;1259;48.306;14.374;2022-12-07T04:49:47;1.90;99.90
2497;DHT22;1259;48.306;14.374;2022-12-07T04:52:13;1.80;99.90
2497;DHT22;1259;48.306;14.374;2022-12-07T04:54:41;1.70;99.90
2497;DHT22;1259;48.306;14.374;2022-12-07T04:57:08;1.80;99.90
2497;DHT22;1259;48.306;14.374;2022-12-07T04:59:35;1.80;99.90
2497;DHT22;1259;48.306;14.374;2022-12-07T05:02:02;1.80;99.90
2497;DHT22;1259;48.306;14.374;2022-12-07T05:04:29;1.70;99.90
2497;DHT22;1259;48.306;14.374;2022-12-07T05:06:55;1.70;99.90
2497;DHT22;1259;48.306;14.374;2022-12-07T05:09:22;1.70;99.90
2497;DHT22;1259;48.306;14.374;2022-12-07T05:11:51;1.70;99.90
2497;DHT22;1259;48.306;14.374;2022-12-07T05:14:19;1.70;99.90
2497;DHT22;1259;48.306;14.374;2022-12-07T05:16:48;1.70;99.90
2497;DHT22;1259;48.306;14.374;2022-12-07T05:19:16;1.70;99.90
2497;DHT22;1259;48.306;14.374;2022-12-07T05:21:43;1.70;99.90
2497;DHT22;1259;48.306;14.374;2022-12-07T05:24:11;1.60;99.90
2497;DHT22;1259;48.306;14.374;2022-12-07T05:26:39;1.60;99.90
2497;DHT22;1259;48.306;14.374;2022-12-07T05:29:07;1.60;99.90
2497;DHT22;1259;48.306;14.374;2022-12-07T05:31:34;1.60;99.90
2497;DHT22;1259;48.306;14.374;2022-12-07T05:34:01;1.60;99.90
2497;DHT22;1259;48.306;14.374;2022-12-07T05:36:27;1.60;99.90
2497;DHT22;1259;48.306;14.374;2022-12-07T05:38:56;1.60;99.90
2497;DHT22;1259;48.306;14.374;2022-12-07T05:41:23;1.60;99.90
2497;DHT22;1259;48.306;14.374;2022-12-07T05:44:09;1.70;99.90
2497;DHT22;1259;48.306;14.374;2022-12-07T05:46:36;1.60;99.90
2497;DHT22;1259;48.306;14.374;2022-12-07T05:49:03;1.60;99.90
2497;DHT22;1259;48.306;14.374;2022-12-07T05:51:29;1.60;99.90
2497;DHT22;1259;48.306;14.374;2022-12-07T05:53:56;1.70;99.90
2497;DHT22;1259;48.306;14.374;2022-12-07T05:56:23;1.70;99.90
2497;DHT22;1259;48.306;14.374;2022-12-07T05:58:50;1.60;99.90
2497;DHT22;1259;48.306;14.374;2022-12-07T06:01:35;1.70;99.90
2497;DHT22;1259;48.306;14.374;2022-12-07T06:04:02;1.70;99.90
2497;DHT22;1259;48.306;14.374;2022-12-07T06:06:29;1.70;99.90
2497;DHT22;1259;48.306;14.374;2022-12-07T06:08:56;1.70;99.90
2497;DHT22;1259;48.306;14.374;2022-12-07T06:11:23;1.60;99.90
2497;DHT22;1259;48.306;14.374;2022-12-07T06:14:07;1.50;99.90
2497;DHT22;1259;48.306;14.374;2022-12-07T06:16:35;1.50;99.90
2497;DHT22;1259;48.306;14.374;2022-12-07T06:19:02;1.50;99.90
2497;DHT22;1259;48.306;14.374;2022-12-07T06:21:28;1.50;99.90
2497;DHT22;1259;48.306;14.374;2022-12-07T06:23:55;1.60;99.90
2497;DHT22;1259;48.306;14.374;2022-12-07T06:26:22;1.50;99.90
2497;DHT22;1259;48.306;14.374;2022-12-07T06:28:49;1.50;99.90
2497;DHT22;1259;48.306;14.374;2022-12-07T06:31:16;1.50;99.90
2497;DHT22;1259;48.306;14.374;2022-12-07T06:33:44;1.50;99.90
2497;DHT22;1259;48.306;14.374;2022-12-07T06:36:11;1.50;99.90
2497;DHT22;1259;48.306;14.374;2022-12-07T06:38:38;1.50;99.90
2497;DHT22;1259;48.306;14.374;2022-12-07T06:41:05;1.50;99.90
2497;DHT22;1259;48.306;14.374;2022-12-07T06:43:33;1.50;99.90
2497;DHT22;1259;48.306;14.374;2022-12-07T06:45:59;1.50;99.90
2497;DHT22;1259;48.306;14.374;2022-12-07T06:48:26;1.50;99.90
2497;DHT22;1259;48.306;14.374;2022-12-07T06:50:54;1.50;99.90
2497;DHT22;1259;48.306;14.374;2022-12-07T06:53:21;1.50;99.90
2497;DHT22;1259;48.306;14.374;2022-12-07T06:55:49;1.50;99.90
2497;DHT22;1259;48.306;14.374;2022-12-07T06:58:16;1.50;99.90
2497;DHT22;1259;48.306;14.374;2022-12-07T07:00:43;1.60;99.90
2497;DHT22;1259;48.306;14.374;2022-12-07T07:03:10;1.60;99.90
2497;DHT22;1259;48.306;14.374;2022-12-07T07:05:37;1.60;99.90
2497;DHT22;1259;48.306;14.374;2022-12-07T07:08:05;1.50;99.90
2497;DHT22;1259;48.306;14.374;2022-12-07T07:10:32;1.50;99.90
2497;DHT22;1259;48.306;14.374;2022-12-07T07:12:59;1.50;99.90
2497;DHT22;1259;48.306;14.374;2022-12-07T07:15:26;1.60;99.90
2497;DHT22;1259;48.306;14.374;2022-12-07T07:17:53;1.50;99.90
2497;DHT22;1259;48.306;14.374;2022-12-07T07:20:20;1.50;99.90
2497;DHT22;1259;48.306;14.374;2022-12-07T07:22:47;1.50;99.90
2497;DHT22;1259;48.306;14.374;2022-12-07T07:25:15;1.50;99.90
2497;DHT22;1259;48.306;14.374;2022-12-07T07:27:42;1.50;99.90
2497;DHT22;1259;48.306;14.374;2022-12-07T07:30:09;1.50;99.90
2497;DHT22;1259;48.306;14.374;2022-12-07T07:32:36;1.50;99.90
2497;DHT22;1259;48.306;14.374;2022-12-07T07:35:04;1.50;99.90
2497;DHT22;1259;48.306;14.374;2022-12-07T07:37:31;1.50;99.90
2497;DHT22;1259;48.306;14.374;2022-12-07T07:39:57;1.60;99.90
2497;DHT22;1259;48.306;14.374;2022-12-07T07:42:25;1.60;99.90
2497;DHT22;1259;48.306;14.374;2022-12-07T07:44:52;1.60;99.90
2497;DHT22;1259;48.306;14.374;2022-12-07T07:47:19;1.60;99.90
2497;DHT22;1259;48.306;14.374;2022-12-07T07:49:46;1.60;99.90
2497;DHT22;1259;48.306;14.374;2022-12-07T07:52:12;1.60;99.90
2497;DHT22;1259;48.306;14.374;2022-12-07T07:54:39;1.60;99.90
2497;DHT22;1259;48.306;14.374;2022-12-07T07:57:06;1.60;99.90
2497;DHT22;1259;48.306;14.374;2022-12-07T07:59:34;1.60;99.90
2497;DHT22;1259;48.306;14.374;2022-12-07T08:02:01;1.70;99.90
2497;DHT22;1259;48.306;14.374;2022-12-07T08:04:28;1.70;99.90
2497;DHT22;1259;48.306;14.374;2022-12-07T08:06:54;1.70;99.90
2497;DHT22;1259;48.306;14.374;2022-12-07T08:09:21;1.70;99.90
2497;DHT22;1259;48.306;14.374;2022-12-07T08:11:48;1.70;99.90
2497;DHT22;1259;48.306;14.374;2022-12-07T08:14:15;1.70;99.90
2497;DHT22;1259;48.306;14.374;2022-12-07T08:16:43;1.70;99.90
2497;DHT22;1259;48.306;14.374;2022-12-07T08:19:09;1.70;99.90
2497;DHT22;1259;48.306;14.374;2022-12-07T08:21:37;1.80;99.90
2497;DHT22;1259;48.306;14.374;2022-12-07T08:24:04;1.70;99.90
2497;DHT22;1259;48.306;14.374;2022-12-07T08:26:31;1.80;99.90
2497;DHT22;1259;48.306;14.374;2022-12-07T08:28:59;1.80;99.90
2497;DHT22;1259;48.306;14.374;2022-12-07T08:31:25;1.70;99.90
2497;DHT22;1259;48.306;14.374;2022-12-07T08:33:54;1.70;99.90
2497;DHT22;1259;48.306;14.374;2022-12-07T08:36:21;1.80;99.90
2497;DHT22;1259;48.306;14.374;2022-12-07T08:38:48;1.80;99.90
2497;DHT22;1259;48.306;14.374;2022-12-07T08:41:15;1.80;99.90
2497;DHT22;1259;48.306;14.374;2022-12-07T08:43:42;1.90;99.90
2497;DHT22;1259;48.306;14.374;2022-12-07T08:46:12;1.80;99.90
2497;DHT22;1259;48.306;14.374;2022-12-07T08:48:43;1.80;99.90
2497;DHT22;1259;48.306;14.374;2022-12-07T08:51:12;1.90;99.90
2497;DHT22;1259;48.306;14.374;2022-12-07T08:53:40;1.80;99.90
2497;DHT22;1259;48.306;14.374;2022-12-07T08:56:07;1.90;99.90
2497;DHT22;1259;48.306;14.374;2022-12-07T08:58:35;1.90;99.90
2497;DHT22;1259;48.306;14.374;2022-12-07T09:01:03;1.90;99.90
2497;DHT22;1259;48.306;14.374;2022-12-07T09:03:30;1.90;99.90
2497;DHT22;1259;48.306;14.374;2022-12-07T09:05:58;1.90;99.90
2497;DHT22;1259;48.306;14.374;2022-12-07T09:08:29;1.90;99.90
2497;DHT22;1259;48.306;14.374;2022-12-07T09:10:58;2.00;99.90
2497;DHT22;1259;48.306;14.374;2022-12-07T09:13:25;1.90;99.90
2497;DHT22;1259;48.306;14.374;2022-12-07T09:15:52;1.90;99.90
2497;DHT22;1259;48.306;14.374;2022-12-07T09:18:19;1.90;99.90
2497;DHT22;1259;48.306;14.374;2022-12-07T09:20:46;2.00;99.90
2497;DHT22;1259;48.306;14.374;2022-12-07T09:23:12;2.10;99.90
2497;DHT22;1259;48.306;14.374;2022-12-07T09:25:41;2.10;99.90
2497;DHT22;1259;48.306;14.374;2022-12-07T09:28:07;2.10;99.90
2497;DHT22;1259;48.306;14.374;2022-12-07T09:30:35;2.10;99.90
2497;DHT22;1259;48.306;14.374;2022-12-07T09:33:02;2.10;99.90
2497;DHT22;1259;48.306;14.374;2022-12-07T09:35:28;2.10;99.90
2497;DHT22;1259;48.306;14.374;2022-12-07T09:37:55;2.10;99.90
2497;DHT22;1259;48.306;14.374;2022-12-07T09:40:23;2.10;99.90
2497;DHT22;1259;48.306;14.374;2022-12-07T09:42:53;2.10;99.90
2497;DHT22;1259;48.306;14.374;2022-12-07T09:45:23;2.10;99.90
2497;DHT22;1259;48.306;14.374;2022-12-07T09:47:51;2.20;99.90
2497;DHT22;1259;48.306;14.374;2022-12-07T09:50:23;2.20;99.90
2497;DHT22;1259;48.306;14.374;2022-12-07T09:52:51;2.20;99.90
2497;DHT22;1259;48.306;14.374;2022-12-07T09:55:22;2.20;99.90
2497;DHT22;1259;48.306;14.374;2022-12-07T09:57:52;2.20;99.90
2497;DHT22;1259;48.306;14.374;2022-12-07T10:00:20;2.20;99.90
2497;DHT22;1259;48.306;14.374;2022-12-07T10:02:50;2.30;99.90
2497;DHT22;1259;48.306;14.374;2022-12-07T10:05:21;2.40;99.90
2497;DHT22;1259;48.306;14.374;2022-12-07T10:07:48;2.40;99.90
2497;DHT22;1259;48.306;14.374;2022-12-07T10:10:17;2.30;99.90
2497;DHT22;1259;48.306;14.374;2022-12-07T10:12:59;2.40;99.90
2497;DHT22;1259;48.306;14.374;2022-12-07T10:15:43;2.30;99.90
2497;DHT22;1259;48.306;14.374;2022-12-07T10:18:25;2.30;99.90
2497;DHT22;1259;48.306;14.374;2022-12-07T10:21:05;2.30;99.90
2497;DHT22;1259;48.306;14.374;2022-12-07T10:23:34;2.30;99.90
2497;DHT22;1259;48.306;14.374;2022-12-07T10:26:20;2.30;99.90
2497;DHT22;1259;48.306;14.374;2022-12-07T10:28:49;2.30;99.90
2497;DHT22;1259;48.306;14.374;2022-12-07T10:31:18;2.30;99.90
2497;DHT22;1259;48.306;14.374;2022-12-07T10:33:50;2.30;99.90
2497;DHT22;1259;48.306;14.374;2022-12-07T10:36:21;2.20;99.90
2497;DHT22;1259;48.306;14.374;2022-12-07T10:38:51;2.20;99.90
2497;DHT22;1259;48.306;14.374;2022-12-07T10:41:19;2.20;99.90
2497;DHT22;1259;48.306;14.374;2022-12-07T10:43:49;2.10;99.90
2497;DHT22;1259;48.306;14.374;2022-12-07T10:49:38;2.10;99.90
2497;DHT22;1259;48.306;14.374;2022-12-07T10:52:12;2.00;99.90
2497;DHT22;1259;48.306;14.374;2022-12-07T10:54:48;2.00;99.90
2497;DHT22;1259;48.306;14.374;2022-12-07T10:57:31;1.90;99.90
2497;DHT22;1259;48.306;14.374;2022-12-07T11:00:08;1.90;99.90
2497;DHT22;1259;48.306;14.374;2022-12-07T11:02:52;1.90;99.90
2497;DHT22;1259;48.306;14.374;2022-12-07T11:05:26;1.90;99.90
2497;DHT22;1259;48.306;14.374;2022-12-07T11:08:03;1.90;99.90
2497;DHT22;1259;48.306;14.374;2022-12-07T11:10:39;2.00;99.90
2497;DHT22;1259;48.306;14.374;2022-12-07T11:13:26;2.00;99.90
2497;DHT22;1259;48.306;14.374;2022-12-07T11:16:14;2.00;99.90
2497;DHT22;1259;48.306;14.374;2022-12-07T11:18:49;2.10;99.90
2497;DHT22;1259;48.306;14.374;2022-12-07T11:21:23;2.10;99.90
2497;DHT22;1259;48.306;14.374;2022-12-07T11:23:59;2.20;99.90
2497;DHT22;1259;48.306;14.374;2022-12-07T11:26:49;2.30;99.90
2497;DHT22;1259;48.306;14.374;2022-12-07T11:29:33;2.40;99.90
2497;DHT22;1259;48.306;14.374;2022-12-07T11:32:13;2.40;99.90
2497;DHT22;1259;48.306;14.374;2022-12-07T11:34:51;2.40;99.90
2497;DHT22;1259;48.306;14.374;2022-12-07T11:37:27;2.40;99.90
2497;DHT22;1259;48.306;14.374;2022-12-07T11:40:01;2.50;99.90
2497;DHT22;1259;48.306;14.374;2022-12-07T11:42:33;2.40;99.90
2497;DHT22;1259;48.306;14.374;2022-12-07T11:45:13;2.40;99.90
2497;DHT22;1259;48.306;14.374;2022-12-07T11:47:46;2.40;99.90
2497;DHT22;1259;48.306;14.374;2022-12-07T11:50:27;2.40;99.90
2497;DHT22;1259;48.306;14.374;2022-12-07T11:52:58;2.50;99.90
2497;DHT22;1259;48.306;14.374;2022-12-07T11:55:32;2.60;99.90
2497;DHT22;1259;48.306;14.374;2022-12-07T11:58:05;2.50;99.90
2497;DHT22;1259;48.306;14.374;2022-12-07T12:00:36;2.50;99.90
2497;DHT22;1259;48.306;14.374;2022-12-07T12:03:10;2.50;99.90
2497;DHT22;1259;48.306;14.374;2022-12-07T12:05:39;2.50;99.90
2497;DHT22;1259;48.306;14.374;2022-12-07T12:08:14;2.50;99.90
2497;DHT22;1259;48.306;14.374;2022-12-07T12:10:54;2.60;99.90
2497;DHT22;1259;48.306;14.374;2022-12-07T12:13:40;2.50;99.90
2497;DHT22;1259;48.306;14.374;2022-12-07T12:16:21;2.60;99.90
2497;DHT22;1259;48.306;14.374;2022-12-07T12:19:06;2.70;99.90
2497;DHT22;1259;48.306;14.374;2022-12-07T12:21:37;2.70;99.90
2497;DHT22;1259;48.306;14.374;2022-12-07T12:24:09;2.70;99.90
2497;DHT22;1259;48.306;14.374;2022-12-07T12:26:37;2.70;99.90
2497;DHT22;1259;48.306;14.374;2022-12-07T12:29:06;2.60;99.90
2497;DHT22;1259;48.306;14.374;2022-12-07T12:31:48;2.70;99.90
2497;DHT22;1259;48.306;14.374;2022-12-07T12:34:38;2.70;99.90
2497;DHT22;1259;48.306;14.374;2022-12-07T12:37:44;2.70;99.90
2497;DHT22;1259;48.306;14.374;2022-12-07T12:43:43;2.80;99.90
2497;DHT22;1259;48.306;14.374;2022-12-07T12:49:34;2.80;99.90
2497;DHT22;1259;48.306;14.374;2022-12-07T12:55:15;2.80;99.90
2497;DHT22;1259;48.306;14.374;2022-12-07T12:57:47;2.70;99.90
2497;DHT22;1259;48.306;14.374;2022-12-07T13:00:18;2.80;99.90
2497;DHT22;1259;48.306;14.374;2022-12-07T13:02:49;2.90;99.90
2497;DHT22;1259;48.306;14.374;2022-12-07T13:05:19;2.90;99.90
2497;DHT22;1259;48.306;14.374;2022-12-07T13:07:54;2.90;99.90
2497;DHT22;1259;48.306;14.374;2022-12-07T13:10:36;2.90;99.90
2497;DHT22;1259;48.306;14.374;2022-12-07T13:13:32;2.90;99.90
2497;DHT22;1259;48.306;14.374;2022-12-07T13:19:01;2.90;99.90
2497;DHT22;1259;48.306;14.374;2022-12-07T13:21:41;2.90;99.90
2497;DHT22;1259;48.306;14.374;2022-12-07T13:24:12;2.90;99.90
2497;DHT22;1259;48.306;14.374;2022-12-07T13:26:43;2.90;99.90
2497;DHT22;1259;48.306;14.374;2022-12-07T13:29:12;2.90;99.90
2497;DHT22;1259;48.306;14.374;2022-12-07T13:31:41;2.80;99.90
2497;DHT22;1259;48.306;14.374;2022-12-07T13:34:30;2.80;99.90
2497;DHT22;1259;48.306;14.374;2022-12-07T13:36:57;2.80;99.90
2497;DHT22;1259;48.306;14.374;2022-12-07T13:39:26;2.70;99.90
2497;DHT22;1259;48.306;14.374;2022-12-07T13:41:55;2.70;99.90
2497;DHT22;1259;48.306;14.374;2022-12-07T13:44:24;2.70;99.90
2497;DHT22;1259;48.306;14.374;2022-12-07T13:46:59;2.60;99.90
2497;DHT22;1259;48.306;14.374;2022-12-07T13:49:32;2.60;99.90
2497;DHT22;1259;48.306;14.374;2022-12-07T13:52:17;2.60;99.90
2497;DHT22;1259;48.306;14.374;2022-12-07T13:54:46;2.60;99.90
2497;DHT22;1259;48.306;14.374;2022-12-07T13:57:14;2.60;99.90
2497;DHT22;1259;48.306;14.374;2022-12-07T13:59:43;2.60;99.90
2497;DHT22;1259;48.306;14.374;2022-12-07T14:02:20;2.60;99.90
2497;DHT22;1259;48.306;14.374;2022-12-07T14:04:49;2.60;99.90
2497;DHT22;1259;48.306;14.374;2022-12-07T14:07:22;2.70;99.90
2497;DHT22;1259;48.306;14.374;2022-12-07T14:09:58;2.60;99.90
2497;DHT22;1259;48.306;14.374;2022-12-07T14:12:27;2.60;99.90
2497;DHT22;1259;48.306;14.374;2022-12-07T14:14:55;2.60;99.90
2497;DHT22;1259;48.306;14.374;2022-12-07T14:17:24;2.60;99.90
2497;DHT22;1259;48.306;14.374;2022-12-07T14:19:52;2.60;99.90
2497;DHT22;1259;48.306;14.374;2022-12-07T14:22:27;2.70;99.90
2497;DHT22;1259;48.306;14.374;2022-12-07T14:25:17;2.60;99.90
2497;DHT22;1259;48.306;14.374;2022-12-07T14:27:52;2.60;99.90
2497;DHT22;1259;48.306;14.374;2022-12-07T14:30:22;2.60;99.90
2497;DHT22;1259;48.306;14.374;2022-12-07T14:32:52;2.60;99.90
2497;DHT22;1259;48.306;14.374;2022-12-07T14:35:19;2.60;99.90
2497;DHT22;1259;48.306;14.374;2022-12-07T14:37:48;2.60;99.90
2497;DHT22;1259;48.306;14.374;2022-12-07T14:40:17;2.60;99.90
2497;DHT22;1259;48.306;14.374;2022-12-07T14:42:45;2.60;99.90
2497;DHT22;1259;48.306;14.374;2022-12-07T14:45:16;2.60;99.90
2497;DHT22;1259;48.306;14.374;2022-12-07T14:47:44;2.60;99.90
2497;DHT22;1259;48.306;14.374;2022-12-07T14:50:12;2.60;99.90
2497;DHT22;1259;48.306;14.374;2022-12-07T14:52:40;2.50;99.90
2497;DHT22;1259;48.306;14.374;2022-12-07T14:55:18;2.60;99.90
2497;DHT22;1259;48.306;14.374;2022-12-07T14:57:46;2.50;99.90
2497;DHT22;1259;48.306;14.374;2022-12-07T15:00:16;2.60;99.90
2497;DHT22;1259;48.306;14.374;2022-12-07T15:02:44;2.60;99.90
2497;DHT22;1259;48.306;14.374;2022-12-07T15:05:11;2.50;99.90
2497;DHT22;1259;48.306;14.374;2022-12-07T15:07:38;2.60;99.90
2497;DHT22;1259;48.306;14.374;2022-12-07T15:10:14;2.60;99.90
2497;DHT22;1259;48.306;14.374;2022-12-07T15:12:42;2.50;99.90
2497;DHT22;1259;48.306;14.374;2022-12-07T15:15:09;2.50;99.90
2497;DHT22;1259;48.306;14.374;2022-12-07T15:17:37;2.60;99.90
2497;DHT22;1259;48.306;14.374;2022-12-07T15:20:05;2.60;99.90
2497;DHT22;1259;48.306;14.374;2022-12-07T15:22:32;2.50;99.90
2497;DHT22;1259;48.306;14.374;2022-12-07T15:24:59;2.50;99.90
2497;DHT22;1259;48.306;14.374;2022-12-07T15:27:27;2.50;99.90
2497;DHT22;1259;48.306;14.374;2022-12-07T15:29:53;2.50;99.90
2497;DHT22;1259;48.306;14.374;2022-12-07T15:32:20;2.50;99.90
2497;DHT22;1259;48.306;14.374;2022-12-07T15:34:52;2.50;99.90
2497;DHT22;1259;48.306;14.374;2022-12-07T15:37:19;2.50;99.90
2497;DHT22;1259;48.306;14.374;2022-12-07T15:39:46;2.60;99.90
2497;DHT22;1259;48.306;14.374;2022-12-07T15:42:13;2.70;99.90
2497;DHT22;1259;48.306;14.374;2022-12-07T15:44:40;2.70;99.90
2497;DHT22;1259;48.306;14.374;2022-12-07T15:47:24;2.60;99.90
2497;DHT22;1259;48.306;14.374;2022-12-07T15:49:53;2.50;99.90
2497;DHT22;1259;48.306;14.374;2022-12-07T15:52:20;2.60;99.90
2497;DHT22;1259;48.306;14.374;2022-12-07T15:54:47;2.50;99.90
2497;DHT22;1259;48.306;14.374;2022-12-07T15:57:14;2.60;99.90
2497;DHT22;1259;48.306;14.374;2022-12-07T15:59:41;2.60;99.90
2497;DHT22;1259;48.306;14.374;2022-12-07T16:02:08;2.50;99.90
2497;DHT22;1259;48.306;14.374;2022-12-07T16:04:36;2.50;99.90
2497;DHT22;1259;48.306;14.374;2022-12-07T16:07:04;2.50;99.90
2497;DHT22;1259;48.306;14.374;2022-12-07T16:09:31;2.50;99.90
2497;DHT22;1259;48.306;14.374;2022-12-07T16:11:58;2.50;99.90
2497;DHT22;1259;48.306;14.374;2022-12-07T16:14:25;2.40;99.90
2497;DHT22;1259;48.306;14.374;2022-12-07T16:16:52;2.40;99.90
2497;DHT22;1259;48.306;14.374;2022-12-07T16:19:18;2.30;99.90
2497;DHT22;1259;48.306;14.374;2022-12-07T16:21:45;2.30;99.90
2497;DHT22;1259;48.306;14.374;2022-12-07T16:24:13;2.30;99.90
2497;DHT22;1259;48.306;14.374;2022-12-07T16:26:40;2.40;99.90
2497;DHT22;1259;48.306;14.374;2022-12-07T16:29:09;2.40;99.90
2497;DHT22;1259;48.306;14.374;2022-12-07T16:31:37;2.40;99.90
2497;DHT22;1259;48.306;14.374;2022-12-07T16:34:04;2.40;99.90
2497;DHT22;1259;48.306;14.374;2022-12-07T16:36:30;2.40;99.90
2497;DHT22;1259;48.306;14.374;2022-12-07T16:38:58;2.30;99.90
2497;DHT22;1259;48.306;14.374;2022-12-07T16:41:27;2.40;99.90